createdAt,value
2016-11-21T00:00:13.034Z,70.28
2016-11-21T00:01:11.044Z,70.10
2016-11-21T00:02:11.923Z,69.64
2016-11-21T00:03:11.885Z,70.10
2016-11-21T00:04:12.750Z,70.26
2016-11-21T00:05:11.318Z,70.27
2016-11-21T00:06:13.428Z,70.30
2016-11-21T00:07:13.179Z,70.35
2016-11-21T00:08:13.113Z,70.42
2016-11-21T00:09:12.244Z,70.32
2016-11-21T00:10:12.157Z,70.38
2016-11-21T00:11:12.646Z,70.33
2016-11-21T00:12:12.576Z,70.35
2016-11-21T00:13:12.529Z,70.32
2016-11-21T00:14:18.389Z,70.46
2016-11-21T00:15:10.697Z,70.41
2016-11-21T00:16:18.238Z,70.39
2016-11-21T00:17:14.992Z,70.42
2016-11-21T00:18:13.554Z,70.44
2016-11-21T00:19:13.016Z,70.45
2016-11-21T00:20:12.024Z,70.43
2016-11-21T00:21:12.748Z,70.38
2016-11-21T00:22:12.953Z,70.51
2016-11-21T00:23:11.983Z,70.51
2016-11-21T00:24:13.582Z,70.40
2016-11-21T00:25:12.932Z,70.39
2016-11-21T00:26:12.626Z,70.50
2016-11-21T00:27:13.108Z,70.40
2016-11-21T00:28:12.078Z,70.40
2016-11-21T00:29:12.678Z,70.41
2016-11-21T00:30:13.107Z,70.42
2016-11-21T00:31:12.750Z,70.35
2016-11-21T00:32:12.584Z,70.45
2016-11-21T00:33:12.606Z,70.48
2016-11-21T00:34:12.840Z,70.54
2016-11-21T00:35:13.234Z,70.50
2016-11-21T00:36:12.470Z,70.44
2016-11-21T00:37:13.187Z,70.46
2016-11-21T00:38:18.329Z,70.37
2016-11-21T00:39:12.927Z,70.49
2016-11-21T00:40:10.851Z,70.52
2016-11-21T00:41:12.946Z,70.39
2016-11-21T00:42:13.314Z,70.42
2016-11-21T00:43:14.110Z,70.51
2016-11-21T00:44:13.689Z,70.41
2016-11-21T00:45:13.260Z,70.38
2016-11-21T00:46:09.657Z,70.47
2016-11-21T00:47:12.964Z,70.44
2016-11-21T00:48:12.497Z,70.49
2016-11-21T00:49:12.444Z,70.37
2016-11-21T00:50:13.007Z,70.41
2016-11-21T00:51:12.587Z,70.37
2016-11-21T00:52:13.317Z,70.44
2016-11-21T00:53:13.021Z,70.32
2016-11-21T00:54:13.022Z,70.54
2016-11-21T00:55:12.021Z,70.41
2016-11-21T00:56:12.418Z,70.48
2016-11-21T00:57:14.003Z,70.39
2016-11-21T00:58:12.880Z,70.36
2016-11-21T00:59:12.788Z,70.29
2016-11-21T01:00:13.675Z,70.33
2016-11-21T01:01:15.247Z,70.40
2016-11-21T01:02:14.131Z,70.33
2016-11-21T01:03:13.712Z,70.39
2016-11-21T01:04:13.620Z,70.33
2016-11-21T01:05:15.112Z,70.34
2016-11-21T01:06:12.195Z,70.37
2016-11-21T01:07:13.375Z,70.36
2016-11-21T01:08:11.206Z,70.45
2016-11-21T01:09:13.861Z,70.48
2016-11-21T01:10:14.179Z,70.43
2016-11-21T01:11:12.379Z,70.38
2016-11-21T01:12:12.315Z,70.40
2016-11-21T01:13:14.518Z,70.32
2016-11-21T01:14:15.043Z,70.40
2016-11-21T01:15:14.048Z,70.49
2016-11-21T01:16:13.323Z,70.42
2016-11-21T01:17:14.024Z,70.40
2016-11-21T01:18:13.589Z,70.39
2016-11-21T01:19:12.959Z,70.35
2016-11-21T01:20:14.522Z,70.37
2016-11-21T01:21:12.180Z,70.43
2016-11-21T01:22:13.950Z,70.48
2016-11-21T01:23:13.144Z,70.39
2016-11-21T01:24:13.172Z,70.47
2016-11-21T01:25:14.851Z,70.45
2016-11-21T01:26:13.183Z,70.32
2016-11-21T01:27:12.874Z,70.50
2016-11-21T01:28:12.906Z,70.34
2016-11-21T01:29:14.883Z,70.41
2016-11-21T01:30:12.879Z,70.37
2016-11-21T01:31:13.333Z,70.47
2016-11-21T01:32:14.225Z,70.44
2016-11-21T01:33:13.130Z,70.54
2016-11-21T01:34:12.216Z,70.43
2016-11-21T01:35:12.420Z,70.45
2016-11-21T01:36:12.362Z,70.35
2016-11-21T01:37:15.757Z,70.34
2016-11-21T01:38:14.524Z,70.36
2016-11-21T01:39:12.926Z,70.33
2016-11-21T01:40:12.895Z,70.38
2016-11-21T01:41:13.439Z,70.42
2016-11-21T01:42:13.261Z,70.33
2016-11-21T01:43:13.537Z,70.36
2016-11-21T01:44:13.249Z,70.31
2016-11-21T01:45:12.964Z,69.55
2016-11-21T01:46:12.566Z,70.14
2016-11-21T01:47:14.339Z,70.32
2016-11-21T01:48:13.119Z,70.37
2016-11-21T01:49:12.827Z,70.46
2016-11-21T01:50:13.301Z,70.47
2016-11-21T01:51:12.304Z,70.42
2016-11-21T01:52:12.810Z,70.51
2016-11-21T01:53:12.934Z,70.38
2016-11-21T01:54:13.000Z,70.31
2016-11-21T01:55:13.119Z,70.38
2016-11-21T01:56:12.259Z,70.36
2016-11-21T01:57:13.501Z,70.47
2016-11-21T01:58:13.205Z,70.46
2016-11-21T01:59:14.642Z,70.39
2016-11-21T02:00:13.284Z,70.35
2016-11-21T02:01:11.259Z,70.57
2016-11-21T02:02:12.926Z,70.40
2016-11-21T02:03:12.140Z,70.41
2016-11-21T02:04:12.638Z,70.46
2016-11-21T02:05:13.140Z,70.38
2016-11-21T02:06:12.910Z,70.52
2016-11-21T02:07:11.946Z,70.47
2016-11-21T02:08:18.714Z,70.43
2016-11-21T02:09:12.637Z,70.45
2016-11-21T02:10:12.526Z,70.43
2016-11-21T02:11:13.044Z,70.45
2016-11-21T02:12:10.967Z,70.42
2016-11-21T02:13:14.426Z,69.80
2016-11-21T02:14:13.466Z,70.28
2016-11-21T02:15:19.923Z,70.27
2016-11-21T02:16:12.994Z,70.30
2016-11-21T02:17:13.715Z,70.44
2016-11-21T02:18:13.611Z,70.55
2016-11-21T02:19:14.005Z,70.36
2016-11-21T02:20:13.059Z,70.43
2016-11-21T02:21:10.236Z,70.49
2016-11-21T02:22:13.729Z,70.33
2016-11-21T02:23:13.851Z,69.32
2016-11-21T02:24:12.921Z,69.08
2016-11-21T02:25:11.950Z,69.00
2016-11-21T02:26:13.465Z,68.94
2016-11-21T02:27:13.079Z,69.91
2016-11-21T02:28:13.342Z,70.07
2016-11-21T02:29:12.521Z,70.29
2016-11-21T02:30:14.089Z,70.32
2016-11-21T02:31:13.331Z,70.23
2016-11-21T02:32:14.087Z,70.25
2016-11-21T02:33:12.254Z,70.37
2016-11-21T02:34:13.001Z,70.32
2016-11-21T02:35:13.743Z,70.38
2016-11-21T02:36:13.375Z,70.46
2016-11-21T02:37:13.626Z,70.40
2016-11-21T02:38:12.660Z,70.46
2016-11-21T02:39:12.690Z,70.35
2016-11-21T02:40:13.714Z,70.38
2016-11-21T02:41:14.040Z,70.50
2016-11-21T02:42:12.767Z,70.49
2016-11-21T02:43:12.541Z,70.44
2016-11-21T02:44:13.143Z,70.45
2016-11-21T02:45:12.211Z,70.51
2016-11-21T02:46:11.137Z,70.48
2016-11-21T02:47:12.302Z,69.38
2016-11-21T02:48:12.918Z,69.09
2016-11-21T02:49:13.516Z,69.09
2016-11-21T02:50:12.605Z,69.04
2016-11-21T02:51:13.819Z,68.90
2016-11-21T02:52:12.831Z,69.16
2016-11-21T02:53:12.286Z,69.97
2016-11-21T02:54:12.609Z,69.12
2016-11-21T02:55:13.036Z,68.93
2016-11-21T02:56:12.868Z,68.91
2016-11-21T02:57:15.557Z,69.32
2016-11-21T02:58:13.061Z,69.90
2016-11-21T02:59:14.558Z,70.19
2016-11-21T03:00:13.510Z,70.25
2016-11-21T03:01:12.504Z,70.44
2016-11-21T03:02:13.483Z,70.42
2016-11-21T03:03:11.289Z,70.35
2016-11-21T03:04:13.120Z,69.59
2016-11-21T03:05:12.339Z,70.19
2016-11-21T03:06:13.216Z,70.42
2016-11-21T03:07:13.090Z,70.54
2016-11-21T03:08:13.351Z,70.42
2016-11-21T03:09:12.342Z,70.60
2016-11-21T03:10:14.152Z,70.44
2016-11-21T03:11:12.986Z,70.37
2016-11-21T03:12:10.829Z,70.39
2016-11-21T03:13:12.926Z,69.19
2016-11-21T03:14:12.863Z,69.10
2016-11-21T03:15:13.188Z,68.95
2016-11-21T03:16:13.625Z,68.95
2016-11-21T03:17:13.203Z,69.39
2016-11-21T03:18:12.422Z,70.01
2016-11-21T03:19:13.292Z,70.18
2016-11-21T03:20:12.871Z,70.41
2016-11-21T03:21:12.907Z,70.26
2016-11-21T03:22:13.239Z,70.30
2016-11-21T03:23:18.189Z,70.30
2016-11-21T03:24:13.115Z,70.41
2016-11-21T03:25:13.460Z,70.29
2016-11-21T03:26:13.020Z,70.34
2016-11-21T03:27:12.082Z,70.43
2016-11-21T03:28:13.191Z,70.37
2016-11-21T03:29:12.972Z,70.34
2016-11-21T03:30:12.602Z,70.43
2016-11-21T03:31:12.677Z,70.44
2016-11-21T03:32:13.918Z,70.33
2016-11-21T03:33:12.933Z,70.32
2016-11-21T03:34:12.572Z,70.46
2016-11-21T03:35:12.496Z,70.37
2016-11-21T03:36:13.190Z,70.47
2016-11-21T03:37:12.245Z,70.39
2016-11-21T03:38:12.815Z,70.28
2016-11-21T03:39:13.511Z,70.31
2016-11-21T03:40:12.549Z,70.42
2016-11-21T03:41:12.739Z,70.31
2016-11-21T03:42:13.246Z,70.42
2016-11-21T03:43:12.499Z,70.49
2016-11-21T03:44:11.461Z,70.35
2016-11-21T03:45:14.414Z,70.33
2016-11-21T03:46:13.019Z,70.36
2016-11-21T03:47:12.668Z,70.35
2016-11-21T03:48:13.312Z,70.35
2016-11-21T03:49:11.455Z,70.43
2016-11-21T03:50:14.162Z,70.34
2016-11-21T03:51:12.841Z,70.37
2016-11-21T03:52:12.887Z,70.45
2016-11-21T03:53:13.441Z,70.35
2016-11-21T03:54:13.107Z,70.38
2016-11-21T03:55:12.640Z,70.36
2016-11-21T03:56:12.817Z,70.39
2016-11-21T03:57:18.038Z,70.33
2016-11-21T03:58:12.115Z,70.42
2016-11-21T03:59:13.217Z,70.24
2016-11-21T04:00:13.799Z,70.24
2016-11-21T04:01:14.086Z,70.50
2016-11-21T04:02:12.184Z,70.34
2016-11-21T04:03:12.306Z,70.31
2016-11-21T04:04:12.391Z,70.35
2016-11-21T04:05:12.614Z,70.34
2016-11-21T04:06:13.234Z,70.33
2016-11-21T04:07:12.910Z,70.29
2016-11-21T04:08:12.777Z,70.39
2016-11-21T04:09:13.470Z,70.24
2016-11-21T04:10:12.480Z,70.39
2016-11-21T04:11:14.101Z,70.46
2016-11-21T04:12:12.388Z,70.45
2016-11-21T04:13:13.037Z,70.32
2016-11-21T04:14:12.761Z,70.38
2016-11-21T04:15:12.858Z,70.41
2016-11-21T04:16:12.947Z,70.36
2016-11-21T04:17:12.245Z,70.45
2016-11-21T04:18:12.952Z,70.46
2016-11-21T04:19:13.391Z,70.59
2016-11-21T04:20:14.092Z,70.55
2016-11-21T04:21:12.815Z,70.48
2016-11-21T04:22:12.991Z,70.50
2016-11-21T04:23:11.955Z,70.43
2016-11-21T04:24:12.007Z,70.42
2016-11-21T04:25:12.141Z,70.48
2016-11-21T04:26:11.956Z,70.48
2016-11-21T04:27:12.941Z,69.72
2016-11-21T04:28:12.049Z,70.28
2016-11-21T04:29:11.900Z,70.29
2016-11-21T04:30:12.661Z,70.38
2016-11-21T04:31:12.517Z,70.51
2016-11-21T04:32:13.281Z,70.43
2016-11-21T04:33:12.438Z,70.47
2016-11-21T04:34:14.207Z,70.61
2016-11-21T04:35:12.166Z,70.42
2016-11-21T04:36:12.161Z,70.43
2016-11-21T04:37:13.253Z,70.63
2016-11-21T04:38:13.041Z,70.50
2016-11-21T04:39:12.530Z,70.53
2016-11-21T04:40:12.885Z,70.48
2016-11-21T04:41:13.684Z,70.46
2016-11-21T04:42:13.535Z,70.42
2016-11-21T04:43:13.526Z,70.44
2016-11-21T04:44:13.254Z,70.41
2016-11-21T04:45:12.869Z,70.54
2016-11-21T04:46:12.895Z,70.49
2016-11-21T04:47:13.515Z,70.48
2016-11-21T04:48:13.219Z,70.52
2016-11-21T04:49:12.922Z,70.42
2016-11-21T04:50:12.841Z,70.32
2016-11-21T04:51:17.657Z,70.49
2016-11-21T04:52:13.138Z,70.40
2016-11-21T04:53:12.809Z,70.42
2016-11-21T04:54:13.996Z,70.41
2016-11-21T04:55:12.187Z,70.42
2016-11-21T04:56:12.771Z,70.41
2016-11-21T04:57:13.680Z,70.49
2016-11-21T04:58:15.360Z,70.37
2016-11-21T04:59:12.415Z,70.38
2016-11-21T05:00:15.130Z,70.45
2016-11-21T05:01:12.275Z,70.43
2016-11-21T05:02:12.352Z,70.48
2016-11-21T05:03:12.329Z,70.67
2016-11-21T05:04:12.405Z,70.55
2016-11-21T05:05:11.353Z,70.54
2016-11-21T05:06:10.534Z,69.50
2016-11-21T05:07:12.480Z,69.18
2016-11-21T05:08:12.497Z,69.29
2016-11-21T05:09:12.602Z,70.11
2016-11-21T05:10:13.331Z,70.32
2016-11-21T05:11:13.655Z,70.40
2016-11-21T05:12:13.273Z,70.47
2016-11-21T05:13:12.194Z,70.45
2016-11-21T05:14:12.800Z,70.56
2016-11-21T05:15:12.704Z,70.49
2016-11-21T05:16:12.775Z,70.53
2016-11-21T05:17:13.654Z,70.60
2016-11-21T05:18:13.195Z,70.48
2016-11-21T05:19:14.388Z,70.37
2016-11-21T05:20:14.130Z,70.48
2016-11-21T05:21:12.298Z,70.47
2016-11-21T05:22:12.574Z,70.55
2016-11-21T05:23:12.569Z,70.60
2016-11-21T05:24:13.306Z,70.55
2016-11-21T05:25:17.435Z,70.62
2016-11-21T05:26:10.576Z,70.63
2016-11-21T05:27:12.874Z,70.70
2016-11-21T05:28:12.978Z,70.75
2016-11-21T05:29:12.884Z,70.75
2016-11-21T05:30:12.829Z,70.49
2016-11-21T05:31:10.218Z,70.55
2016-11-21T05:32:12.490Z,70.64
2016-11-21T05:33:13.357Z,70.46
2016-11-21T05:34:12.989Z,70.46
2016-11-21T05:35:16.832Z,70.56
2016-11-21T05:36:14.558Z,70.61
2016-11-21T05:37:11.579Z,70.46
2016-11-21T05:38:13.481Z,70.49
2016-11-21T05:39:14.027Z,70.43
2016-11-21T05:40:11.968Z,70.61
2016-11-21T05:41:12.918Z,70.57
2016-11-21T05:42:13.389Z,70.66
2016-11-21T05:43:12.517Z,70.68
2016-11-21T05:44:12.887Z,70.66
2016-11-21T05:45:13.660Z,70.60
2016-11-21T05:46:12.574Z,70.61
2016-11-21T05:47:13.656Z,70.72
2016-11-21T05:48:18.468Z,70.50
2016-11-21T05:49:13.208Z,70.65
2016-11-21T05:50:12.923Z,70.46
2016-11-21T05:51:12.993Z,70.65
2016-11-21T05:52:12.170Z,70.56
2016-11-21T05:53:13.409Z,70.65
2016-11-21T05:54:13.491Z,70.74
2016-11-21T05:55:13.574Z,70.54
2016-11-21T05:56:12.264Z,70.61
2016-11-21T05:57:12.290Z,70.59
2016-11-21T05:58:12.669Z,70.59
2016-11-21T05:59:13.133Z,70.52
2016-11-21T06:00:12.928Z,70.68
2016-11-21T06:01:12.083Z,70.79
2016-11-21T06:02:12.253Z,70.65
2016-11-21T06:03:13.855Z,70.55
2016-11-21T06:04:13.379Z,70.68
2016-11-21T06:05:12.406Z,70.74
2016-11-21T06:06:12.907Z,70.62
2016-11-21T06:07:12.773Z,70.66
2016-11-21T06:08:14.549Z,70.46
2016-11-21T06:09:13.879Z,70.65
2016-11-21T06:10:12.948Z,70.75
2016-11-21T06:11:12.044Z,70.63
2016-11-21T06:12:12.159Z,70.67
2016-11-21T06:13:12.791Z,70.63
2016-11-21T06:14:11.585Z,70.71
2016-11-21T06:15:13.278Z,69.86
2016-11-21T06:16:11.280Z,70.39
2016-11-21T06:17:12.384Z,70.56
2016-11-21T06:18:12.379Z,70.51
2016-11-21T06:19:14.252Z,70.58
2016-11-21T06:20:12.858Z,70.65
2016-11-21T06:21:12.683Z,70.69
2016-11-21T06:22:15.389Z,70.49
2016-11-21T06:23:12.931Z,70.46
2016-11-21T06:24:10.218Z,70.66
2016-11-21T06:25:13.587Z,70.50
2016-11-21T06:26:12.727Z,70.73
2016-11-21T06:27:12.799Z,70.62
2016-11-21T06:28:13.253Z,70.76
2016-11-21T06:29:12.321Z,70.60
2016-11-21T06:30:12.481Z,70.81
2016-11-21T06:31:12.537Z,70.84
2016-11-21T06:32:15.158Z,70.81
2016-11-21T06:33:12.272Z,70.87
2016-11-21T06:34:12.935Z,70.76
2016-11-21T06:35:12.481Z,70.79
2016-11-21T06:36:12.517Z,70.82
2016-11-21T06:37:12.513Z,71.04
2016-11-21T06:38:12.466Z,71.18
2016-11-21T06:39:13.170Z,71.63
2016-11-21T06:40:12.243Z,72.15
2016-11-21T06:41:12.225Z,72.26
2016-11-21T06:42:12.982Z,72.01
2016-11-21T06:43:12.588Z,71.94
2016-11-21T06:44:13.117Z,72.04
2016-11-21T06:45:12.514Z,69.90
2016-11-21T06:46:16.827Z,66.53
2016-11-21T06:47:12.816Z,69.07
2016-11-21T06:48:19.603Z,67.02
2016-11-21T06:49:12.605Z,61.91
2016-11-21T06:50:18.144Z,58.63
2016-11-21T06:51:12.659Z,55.50
2016-11-21T06:52:13.006Z,51.76
2016-11-21T06:53:12.377Z,49.73
2016-11-21T06:54:12.897Z,48.57
2016-11-21T06:55:15.662Z,48.47
2016-11-21T06:56:13.342Z,49.46
2016-11-21T06:57:12.406Z,48.59
2016-11-21T06:58:18.515Z,50.91
2016-11-21T06:59:12.466Z,55.84
2016-11-21T07:00:13.167Z,59.09
2016-11-21T07:01:13.587Z,57.59
2016-11-21T07:02:19.340Z,57.11
2016-11-21T07:03:15.084Z,57.69
2016-11-21T07:04:12.245Z,59.88
2016-11-21T07:05:12.354Z,59.78
2016-11-21T07:06:13.096Z,60.00
2016-11-21T07:07:12.676Z,57.49
2016-11-21T07:08:13.308Z,60.53
2016-11-21T07:09:12.929Z,61.39
2016-11-21T07:10:10.910Z,60.87
2016-11-21T07:11:13.803Z,60.41
2016-11-21T07:12:12.967Z,60.62
2016-11-21T07:13:11.665Z,61.09
2016-11-21T07:14:11.504Z,61.02
2016-11-21T07:15:11.053Z,61.04
2016-11-21T07:16:12.878Z,61.06
2016-11-21T07:17:13.714Z,60.97
2016-11-21T07:18:15.426Z,60.98
2016-11-21T07:19:12.864Z,61.12
2016-11-21T07:20:12.955Z,61.30
2016-11-21T07:21:13.714Z,61.38
2016-11-21T07:22:12.780Z,61.48
2016-11-21T07:23:12.601Z,61.45
2016-11-21T07:24:12.796Z,61.55
2016-11-21T07:25:13.353Z,61.62
2016-11-21T07:26:12.930Z,61.56
2016-11-21T07:27:10.937Z,61.74
2016-11-21T07:28:12.945Z,60.68
2016-11-21T07:29:10.350Z,60.75
2016-11-21T07:30:13.839Z,60.78
2016-11-21T07:31:14.236Z,60.78
2016-11-21T07:32:13.857Z,60.74
2016-11-21T07:33:12.847Z,61.74
2016-11-21T07:34:13.572Z,61.87
2016-11-21T07:35:13.423Z,62.27
2016-11-21T07:36:12.466Z,62.37
2016-11-21T07:37:13.621Z,62.52
2016-11-21T07:38:13.064Z,62.58
2016-11-21T07:39:12.916Z,62.62
2016-11-21T07:40:13.704Z,62.69
2016-11-21T07:41:12.696Z,62.76
2016-11-21T07:42:14.270Z,62.92
2016-11-21T07:43:13.967Z,62.99
2016-11-21T07:44:09.173Z,62.99
2016-11-21T07:45:13.175Z,63.06
2016-11-21T07:46:13.727Z,63.13
2016-11-21T07:47:12.560Z,63.17
2016-11-21T07:48:12.400Z,63.35
2016-11-21T07:49:15.264Z,63.42
2016-11-21T07:50:12.756Z,63.42
2016-11-21T07:51:12.865Z,63.50
2016-11-21T07:52:12.769Z,63.56
2016-11-21T07:53:13.311Z,63.64
2016-11-21T07:54:12.452Z,63.69
2016-11-21T07:55:13.375Z,63.74
2016-11-21T07:56:12.286Z,63.78
2016-11-21T07:57:12.256Z,63.82
2016-11-21T07:58:12.902Z,63.86
2016-11-21T07:59:14.295Z,63.90
2016-11-21T08:00:12.516Z,63.93
2016-11-21T08:01:12.693Z,63.96
2016-11-21T08:02:13.285Z,64.01
2016-11-21T08:03:12.857Z,64.03
2016-11-21T08:04:12.795Z,64.07
2016-11-21T08:05:13.491Z,64.14
2016-11-21T08:06:13.156Z,64.00
2016-11-21T08:07:12.206Z,63.18
2016-11-21T08:08:12.347Z,64.01
2016-11-21T08:09:12.317Z,64.16
2016-11-21T08:10:13.923Z,64.23
2016-11-21T08:11:13.571Z,64.26
2016-11-21T08:12:11.549Z,64.32
2016-11-21T08:13:13.186Z,63.34
2016-11-21T08:14:12.257Z,63.17
2016-11-21T08:15:12.673Z,63.10
2016-11-21T08:16:13.387Z,63.05
2016-11-21T08:17:12.569Z,64.05
2016-11-21T08:18:12.458Z,64.26
2016-11-21T08:19:12.417Z,64.37
2016-11-21T08:20:13.007Z,64.48
2016-11-21T08:21:13.830Z,64.51
2016-11-21T08:22:13.498Z,64.54
2016-11-21T08:23:12.644Z,64.59
2016-11-21T08:24:12.577Z,64.62
2016-11-21T08:25:13.614Z,64.61
2016-11-21T08:26:13.117Z,64.69
2016-11-21T08:27:12.752Z,64.71
2016-11-21T08:28:14.970Z,64.72
2016-11-21T08:29:11.974Z,64.73
2016-11-21T08:30:12.730Z,64.76
2016-11-21T08:31:11.605Z,64.80
2016-11-21T08:32:12.820Z,64.79
2016-11-21T08:33:14.092Z,64.82
2016-11-21T08:34:12.696Z,64.83
2016-11-21T08:35:13.110Z,64.88
2016-11-21T08:36:11.082Z,64.89
2016-11-21T08:37:12.220Z,64.92
2016-11-21T08:38:12.692Z,64.93
2016-11-21T08:39:13.257Z,65.07
2016-11-21T08:40:12.615Z,65.00
2016-11-21T08:41:09.853Z,65.04
2016-11-21T08:42:12.745Z,65.07
2016-11-21T08:43:13.159Z,65.16
2016-11-21T08:44:12.356Z,65.60
2016-11-21T08:45:11.360Z,65.59
2016-11-21T08:46:12.901Z,64.80
2016-11-21T08:47:10.144Z,64.73
2016-11-21T08:48:12.656Z,64.53
2016-11-21T08:49:14.670Z,64.45
2016-11-21T08:50:13.295Z,64.43
2016-11-21T08:51:14.373Z,64.44
2016-11-21T08:52:13.117Z,64.41
2016-11-21T08:53:12.694Z,64.57
2016-11-21T08:54:18.238Z,65.47
2016-11-21T08:55:12.418Z,65.74
2016-11-21T08:56:13.139Z,65.73
2016-11-21T08:57:11.257Z,65.22
2016-11-21T08:58:12.803Z,65.73
2016-11-21T08:59:13.451Z,65.75
2016-11-21T09:00:14.218Z,62.86
2016-11-21T09:01:12.187Z,60.49
2016-11-21T09:02:12.175Z,63.99
2016-11-21T09:03:12.159Z,64.91
2016-11-21T09:04:20.055Z,65.78
2016-11-21T09:05:11.418Z,65.94
2016-11-21T09:06:12.172Z,65.94
2016-11-21T09:07:12.861Z,65.86
2016-11-21T09:08:13.505Z,65.91
2016-11-21T09:09:12.532Z,65.85
2016-11-21T09:10:13.134Z,65.82
2016-11-21T09:11:11.010Z,65.76
2016-11-21T09:12:16.561Z,64.65
2016-11-21T09:13:12.478Z,64.29
2016-11-21T09:14:12.491Z,64.20
2016-11-21T09:15:18.338Z,64.08
2016-11-21T09:16:13.357Z,64.03
2016-11-21T09:17:13.361Z,63.94
2016-11-21T09:18:12.339Z,63.88
2016-11-21T09:19:12.849Z,64.86
2016-11-21T09:20:12.869Z,65.06
2016-11-21T09:21:18.465Z,65.09
2016-11-21T09:22:12.372Z,65.16
2016-11-21T09:23:12.368Z,65.20
2016-11-21T09:24:12.359Z,65.18
2016-11-21T09:25:12.436Z,65.19
2016-11-21T09:26:13.016Z,65.20
2016-11-21T09:27:12.670Z,65.20
2016-11-21T09:28:12.833Z,65.21
2016-11-21T09:29:13.551Z,65.25
2016-11-21T09:30:12.578Z,65.27
2016-11-21T09:31:13.414Z,65.23
2016-11-21T09:32:13.680Z,65.24
2016-11-21T09:33:12.621Z,65.24
2016-11-21T09:34:13.948Z,65.23
2016-11-21T09:35:13.404Z,65.22
2016-11-21T09:36:12.895Z,65.22
2016-11-21T09:37:12.895Z,65.21
2016-11-21T09:38:14.927Z,65.21
2016-11-21T09:39:12.490Z,65.21
2016-11-21T09:40:12.508Z,65.19
2016-11-21T09:41:14.994Z,65.21
2016-11-21T09:42:12.830Z,65.19
2016-11-21T09:43:12.860Z,65.21
2016-11-21T09:44:12.996Z,65.22
2016-11-21T09:45:12.704Z,65.18
2016-11-21T09:46:12.718Z,65.17
2016-11-21T09:47:12.839Z,65.21
2016-11-21T09:48:13.591Z,65.21
2016-11-21T09:49:11.655Z,65.23
2016-11-21T09:50:11.378Z,65.20
2016-11-21T09:51:12.679Z,65.21
2016-11-21T09:52:14.760Z,65.18
2016-11-21T09:53:12.904Z,65.22
2016-11-21T09:54:15.573Z,65.20
2016-11-21T09:55:09.680Z,65.23
2016-11-21T09:56:11.021Z,65.12
2016-11-21T09:57:12.320Z,64.19
2016-11-21T09:58:12.528Z,63.99
2016-11-21T09:59:12.559Z,63.84
2016-11-21T10:00:13.176Z,64.11
2016-11-21T10:01:13.181Z,64.79
2016-11-21T10:02:12.657Z,64.99
2016-11-21T10:03:14.247Z,65.07
2016-11-21T10:04:12.357Z,65.12
2016-11-21T10:05:12.199Z,65.15
2016-11-21T10:06:13.957Z,65.16
2016-11-21T10:07:17.378Z,65.19
2016-11-21T10:08:11.352Z,65.06
2016-11-21T10:09:12.686Z,65.19
2016-11-21T10:10:13.162Z,65.19
2016-11-21T10:11:12.709Z,65.07
2016-11-21T10:12:12.634Z,64.20
2016-11-21T10:13:12.569Z,63.99
2016-11-21T10:14:12.604Z,63.90
2016-11-21T10:15:13.101Z,64.87
2016-11-21T10:16:12.956Z,65.02
2016-11-21T10:17:12.037Z,65.12
2016-11-21T10:18:12.426Z,65.16
2016-11-21T10:19:12.415Z,65.21
2016-11-21T10:20:12.967Z,65.21
2016-11-21T10:21:13.616Z,65.24
2016-11-21T10:22:14.144Z,65.24
2016-11-21T10:23:12.688Z,65.23
2016-11-21T10:24:13.178Z,65.27
2016-11-21T10:25:19.160Z,65.23
2016-11-21T10:26:11.005Z,65.27
2016-11-21T10:27:13.807Z,65.25
2016-11-21T10:28:13.462Z,65.24
2016-11-21T10:29:14.264Z,65.24
2016-11-21T10:30:12.282Z,65.24
2016-11-21T10:31:14.360Z,65.24
2016-11-21T10:32:12.993Z,65.23
2016-11-21T10:33:12.965Z,65.25
2016-11-21T10:34:10.925Z,65.24
2016-11-21T10:35:13.017Z,65.27
2016-11-21T10:36:12.763Z,65.25
2016-11-21T10:37:13.402Z,65.26
2016-11-21T10:38:15.007Z,65.28
2016-11-21T10:39:12.647Z,65.28
2016-11-21T10:40:12.529Z,65.28
2016-11-21T10:41:14.235Z,65.30
2016-11-21T10:42:12.347Z,65.30
2016-11-21T10:43:12.477Z,65.29
2016-11-21T10:44:13.156Z,65.30
2016-11-21T10:45:12.736Z,65.27
2016-11-21T10:46:13.194Z,65.28
2016-11-21T10:47:12.395Z,65.30
2016-11-21T10:48:13.438Z,65.30
2016-11-21T10:49:12.464Z,65.30
2016-11-21T10:50:12.958Z,65.32
2016-11-21T10:51:10.082Z,65.32
2016-11-21T10:52:12.162Z,65.28
2016-11-21T10:53:12.327Z,65.28
2016-11-21T10:54:12.409Z,65.28
2016-11-21T10:55:12.464Z,65.31
2016-11-21T10:56:12.927Z,65.30
2016-11-21T10:57:12.067Z,65.30
2016-11-21T10:58:12.904Z,65.29
2016-11-21T10:59:11.746Z,65.30
2016-11-21T11:00:13.193Z,65.28
2016-11-21T11:01:12.173Z,65.30
2016-11-21T11:02:12.818Z,65.29
2016-11-21T11:03:14.347Z,65.28
2016-11-21T11:04:13.142Z,65.28
2016-11-21T11:05:12.721Z,65.27
2016-11-21T11:06:13.256Z,65.24
2016-11-21T11:07:12.427Z,65.27
2016-11-21T11:08:12.390Z,65.27
2016-11-21T11:09:12.758Z,65.26
2016-11-21T11:10:12.837Z,65.24
2016-11-21T11:11:12.712Z,65.25
2016-11-21T11:12:13.228Z,65.24
2016-11-21T11:13:12.367Z,65.26
2016-11-21T11:14:12.434Z,65.27
2016-11-21T11:15:12.880Z,65.27
2016-11-21T11:16:13.016Z,65.27
2016-11-21T11:17:12.350Z,65.27
2016-11-21T11:18:10.901Z,65.26
2016-11-21T11:19:12.923Z,65.28
2016-11-21T11:20:14.450Z,65.26
2016-11-21T11:21:11.500Z,65.29
2016-11-21T11:22:13.908Z,65.28
2016-11-21T11:23:13.493Z,65.27
2016-11-21T11:24:14.512Z,65.26
2016-11-21T11:25:11.506Z,65.25
2016-11-21T11:26:13.550Z,64.45
2016-11-21T11:27:13.130Z,65.04
2016-11-21T11:28:12.831Z,65.14
2016-11-21T11:29:13.261Z,65.18
2016-11-21T11:30:12.547Z,65.22
2016-11-21T11:31:13.395Z,65.23
2016-11-21T11:32:12.851Z,65.24
2016-11-21T11:33:12.708Z,65.24
2016-11-21T11:34:13.375Z,65.24
2016-11-21T11:35:12.428Z,65.24
2016-11-21T11:36:13.948Z,65.26
2016-11-21T11:37:11.938Z,65.25
2016-11-21T11:38:12.000Z,65.24
2016-11-21T11:39:12.046Z,65.25
2016-11-21T11:40:10.819Z,65.27
2016-11-21T11:41:12.100Z,65.27
2016-11-21T11:42:12.237Z,65.27
2016-11-21T11:43:10.414Z,65.29
2016-11-21T11:44:12.453Z,64.24
2016-11-21T11:45:13.208Z,65.04
2016-11-21T11:46:12.896Z,65.15
2016-11-21T11:47:12.968Z,65.20
2016-11-21T11:48:10.294Z,65.23
2016-11-21T11:49:12.810Z,65.23
2016-11-21T11:50:13.469Z,65.23
2016-11-21T11:51:12.436Z,65.24
2016-11-21T11:52:13.214Z,65.26
2016-11-21T11:53:12.650Z,65.28
2016-11-21T11:54:13.235Z,65.27
2016-11-21T11:55:12.792Z,65.27
2016-11-21T11:56:12.783Z,65.26
2016-11-21T11:57:13.339Z,65.27
2016-11-21T11:58:13.071Z,65.29
2016-11-21T11:59:12.685Z,65.28
2016-11-21T12:00:12.664Z,65.27
2016-11-21T12:01:12.719Z,65.28
2016-11-21T12:02:12.836Z,65.28
2016-11-21T12:03:12.908Z,65.28
2016-11-21T12:04:13.564Z,65.31
2016-11-21T12:05:12.407Z,65.29
2016-11-21T12:06:13.067Z,65.28
2016-11-21T12:07:12.126Z,65.27
2016-11-21T12:08:12.756Z,65.29
2016-11-21T12:09:12.756Z,65.31
2016-11-21T12:10:12.684Z,65.29
2016-11-21T12:11:16.239Z,65.30
2016-11-21T12:12:13.073Z,65.30
2016-11-21T12:13:13.710Z,65.30
2016-11-21T12:14:13.222Z,65.29
2016-11-21T12:15:17.469Z,65.30
2016-11-21T12:16:13.039Z,65.29
2016-11-21T12:17:12.093Z,65.29
2016-11-21T12:18:12.905Z,65.29
2016-11-21T12:19:12.969Z,65.31
2016-11-21T12:20:13.751Z,65.31
2016-11-21T12:21:14.664Z,65.30
2016-11-21T12:22:13.117Z,65.14
2016-11-21T12:23:13.772Z,64.60
2016-11-21T12:24:12.759Z,65.10
2016-11-21T12:25:12.672Z,65.19
2016-11-21T12:26:13.273Z,65.25
2016-11-21T12:27:12.349Z,65.26
2016-11-21T12:28:12.218Z,65.26
2016-11-21T12:29:12.925Z,65.27
2016-11-21T12:30:18.189Z,65.27
2016-11-21T12:31:12.357Z,65.29
2016-11-21T12:32:12.977Z,65.29
2016-11-21T12:33:12.208Z,65.28
2016-11-21T12:34:13.160Z,65.29
2016-11-21T12:35:19.361Z,65.29
2016-11-21T12:36:12.520Z,65.29
2016-11-21T12:37:12.600Z,65.30
2016-11-21T12:38:13.053Z,65.30
2016-11-21T12:39:12.269Z,65.30
2016-11-21T12:40:12.412Z,65.30
2016-11-21T12:41:14.227Z,65.31
2016-11-21T12:42:12.230Z,65.31
2016-11-21T12:43:12.340Z,65.30
2016-11-21T12:44:11.196Z,65.25
2016-11-21T12:45:12.901Z,65.30
2016-11-21T12:46:12.861Z,65.32
2016-11-21T12:47:13.429Z,65.32
2016-11-21T12:48:18.261Z,65.31
2016-11-21T12:49:12.860Z,65.31
2016-11-21T12:50:12.629Z,65.32
2016-11-21T12:51:12.689Z,65.31
2016-11-21T12:52:13.287Z,65.33